Portada
METAR-TAF:

METAR-TAF

Aeropuertos :

Aeropuerto Internacional General José Antonio Anzoátegui

Barcelona, Venezuela

latitud: 10-07N, longitud: 064-41W, altitud: 7 m

METAR: falta

Hora: 20:28 (00:28 UTC)

Pronóstico

El informe se hizo hace 2 horas y 28 minutos, a las 22:00 UTC
Pronóstico válido del 17 a las 00 UTC al 18 a las 00 UTC
Viento 5 kt del noroeste
Visibilidad 10 km o más
Cielo nuboso a una altura de 1600 ft
Evolucionando progresivamente
del 17 a las 01 UTC al 17 a las 05 UTC
Viento 2 kt del este
Visibilidad 10 km o más
Cielo nuboso a una altura de 1600 ft

TAF: SVBC 162200Z 1700/1800 32005KT 9999 BKN016 TX35/18Z TN25/09Z BECMG 1701/1705 09002KT 9999 BKN016

Observaciones y pronósticos meteorológicos de más de 4000 aeropuertos (mensajes METAR y TAF).

Los puntos amarillos y rojos representan las estaciones disponibles.

Ponga el ratón en el punto deseado para ver el nombre de la estación.

Haga clic para ver las observaciones y los pronósticos meteorológicos.

Para cambiar el mapa : haga clic en los botones verdes con una cruz de color negro para hacer un zoom, en el botón verde con un guión para alejar o en las flechas verdes para mapas adyacentes.


METAR-TAF: